Time;durP1;ratioP1;P1;durP2;ratioP2;P2;SDS_P1;SDS_P2;PMS_P1;PMS_P2;Temp;Humidity;BMP_temperature;BMP_pressure;BME280_temperature;BME280_humidity;BME280_pressure;Samples;Min_cycle;Max_cycle;Signal;HPM_P1;HPM_P2
2022/03/21 00:00:56;;;;;;;6.43;5.73;;;;;;;;;;5049449;28;20426;-75
2022/03/21 00:03:28;;;;;;;6.10;5.37;;;;;;;;;;5048287;28;20462;-74
2022/03/21 00:05:55;;;;;;;5.17;4.77;;;;;;;;;;5046081;28;20454;-75
2022/03/21 00:08:22;;;;;;;5.23;4.80;;;;;;;;;;5048145;28;20453;-75
2022/03/21 00:10:49;;;;;;;6.80;5.30;;;;;;;;;;5048678;28;20488;-75
2022/03/21 00:13:16;;;;;;;23.60;6.53;;;;;;;;;;5047608;28;20442;-75
2022/03/21 00:15:49;;;;;;;6.53;5.50;;;;;;;;;;5049259;28;20430;-74
2022/03/21 00:18:15;;;;;;;5.40;5.00;;;;;;;;;;5046187;28;20464;-75
2022/03/21 00:20:42;;;;;;;5.77;4.60;;;;;;;;;;5044901;28;20892;-75
2022/03/21 00:23:09;;;;;;;13.27;5.60;;;;;;;;;;5046496;28;20430;-75
2022/03/21 00:25:35;;;;;;;9.50;6.57;;;;;;;;;;5047004;28;20481;-75
2022/03/21 00:28:02;;;;;;;12.63;5.37;;;;;;;;;;5048298;28;20431;-74
2022/03/21 00:30:29;;;;;;;6.87;4.60;;;;;;;;;;5047320;28;20494;-75
2022/03/21 00:32:55;;;;;;;6.00;5.43;;;;;;;;;;5047144;28;20566;-75
2022/03/21 00:35:22;;;;;;;8.00;5.30;;;;;;;;;;5048925;28;20434;-75
2022/03/21 00:37:48;;;;;;;9.27;6.53;;;;;;;;;;5048536;28;20938;-75
2022/03/21 00:40:15;;;;;;;7.03;5.83;;;;;;;;;;5045386;28;20453;-74
2022/03/21 00:42:41;;;;;;;6.70;6.10;;;;;;;;;;5048548;28;20475;-75
2022/03/21 00:45:15;;;;;;;8.23;6.60;;;;;;;;;;5048737;28;20519;-75
2022/03/21 00:47:41;;;;;;;10.97;6.27;;;;;;;;;;5048808;28;20439;-74
2022/03/21 00:50:08;;;;;;;12.00;6.00;;;;;;;;;;5046256;28;20519;-74
2022/03/21 00:52:40;;;;;;;9.57;5.93;;;;;;;;;;5047993;28;20435;-75
2022/03/21 00:55:07;;;;;;;11.47;6.23;;;;;;;;;;5048411;28;20430;-75
2022/03/21 00:57:34;;;;;;;10.17;6.60;;;;;;;;;;5044693;28;20452;-75
2022/03/21 01:00:00;;;;;;;6.53;5.60;;;;;;;;;;5048649;28;20530;-74
2022/03/21 01:02:26;;;;;;;7.13;5.13;;;;;;;;;;5047530;28;20545;-75
2022/03/21 01:04:52;;;;;;;7.63;6.30;;;;;;;;;;5046372;28;20441;-73
2022/03/21 01:07:18;;;;;;;7.47;6.33;;;;;;;;;;5048590;28;20441;-75
2022/03/21 01:09:44;;;;;;;9.93;6.43;;;;;;;;;;5046813;28;20588;-76
2022/03/21 01:12:10;;;;;;;7.63;6.13;;;;;;;;;;5047835;28;20430;-75
2022/03/21 01:14:36;;;;;;;11.97;5.70;;;;;;;;;;5048824;28;20542;-75
2022/03/21 01:17:02;;;;;;;8.77;6.53;;;;;;;;;;5045974;28;20951;-74
2022/03/21 01:19:30;;;;;;;7.40;6.43;;;;;;;;;;5046430;28;20442;-75
2022/03/21 01:21:56;;;;;;;7.73;6.27;;;;;;;;;;5045836;28;20438;-74
2022/03/21 01:24:22;;;;;;;7.37;6.60;;;;;;;;;;5048423;28;20494;-75
2022/03/21 01:26:48;;;;;;;11.43;7.00;;;;;;;;;;5047314;28;20922;-74
2022/03/21 01:29:14;;;;;;;6.90;6.30;;;;;;;;;;5044595;28;21837;-75
2022/03/21 01:31:40;;;;;;;16.83;6.57;;;;;;;;;;5047055;28;20456;-75
2022/03/21 01:34:06;;;;;;;6.67;6.07;;;;;;;;;;5049422;28;20449;-75
2022/03/21 01:36:32;;;;;;;16.53;7.27;;;;;;;;;;5052620;28;20433;-75
2022/03/21 01:38:58;;;;;;;7.50;6.80;;;;;;;;;;5052247;28;20814;-74
2022/03/21 01:41:24;;;;;;;12.00;8.03;;;;;;;;;;5051387;28;20430;-74
2022/03/21 01:44:04;;;;;;;15.53;6.80;;;;;;;;;;5050817;28;20426;-74
2022/03/21 01:46:30;;;;;;;9.03;7.13;;;;;;;;;;5048090;28;20999;-74
2022/03/21 01:48:56;;;;;;;10.60;7.77;;;;;;;;;;5051804;28;20434;-73
2022/03/21 01:51:22;;;;;;;25.03;7.40;;;;;;;;;;5050416;28;21041;-74
2022/03/21 01:56:34;;;;;;;12.30;8.27;;;;;;;;;;5051581;28;20414;-75
2022/03/21 01:59:00;;;;;;;8.60;7.80;;;;;;;;;;5050662;28;20426;-74
2022/03/21 02:01:26;;;;;;;7.73;6.93;;;;;;;;;;5050993;28;20981;-74
2022/03/21 02:03:52;;;;;;;7.43;6.83;;;;;;;;;;5050022;28;20525;-75
2022/03/21 02:06:18;;;;;;;10.30;6.87;;;;;;;;;;5051413;28;20589;-74
2022/03/21 02:08:45;;;;;;;8.27;7.00;;;;;;;;;;5050080;28;20942;-75
2022/03/21 02:11:11;;;;;;;7.60;6.90;;;;;;;;;;5051337;28;20477;-75
2022/03/21 02:13:37;;;;;;;8.57;7.73;;;;;;;;;;5048311;28;20425;-74
2022/03/21 02:16:04;;;;;;;9.73;7.87;;;;;;;;;;5047951;28;20481;-74
2022/03/21 02:18:31;;;;;;;9.47;7.50;;;;;;;;;;5048792;28;20811;-75
2022/03/21 02:20:59;;;;;;;18.10;7.50;;;;;;;;;;5050404;28;20474;-75
2022/03/21 02:23:43;;;;;;;8.73;6.53;;;;;;;;;;5050696;28;20543;-75
2022/03/21 02:26:10;;;;;;;17.77;7.20;;;;;;;;;;5048816;28;20972;-74
2022/03/21 02:28:37;;;;;;;8.20;6.87;;;;;;;;;;5049131;28;20430;-74
2022/03/21 02:31:03;;;;;;;10.43;6.63;;;;;;;;;;5051168;28;20504;-74
2022/03/21 02:33:29;;;;;;;9.73;7.00;;;;;;;;;;5048567;28;20426;-75
2022/03/21 02:35:56;;;;;;;15.07;8.20;;;;;;;;;;5051576;28;20445;-74
2022/03/21 02:38:23;;;;;;;8.70;7.30;;;;;;;;;;5042547;28;20430;-75
2022/03/21 02:40:49;;;;;;;12.57;8.60;;;;;;;;;;5047453;28;20442;-74
2022/03/21 02:43:15;;;;;;;8.60;7.37;;;;;;;;;;5048752;28;20435;-75
2022/03/21 02:45:41;;;;;;;11.53;6.70;;;;;;;;;;5050397;28;20973;-74
2022/03/21 02:48:08;;;;;;;11.17;7.50;;;;;;;;;;5050830;28;20528;-74
2022/03/21 02:50:43;;;;;;;9.83;7.80;;;;;;;;;;5049177;28;20548;-75
2022/03/21 02:53:10;;;;;;;11.30;6.63;;;;;;;;;;5049987;28;20441;-76
2022/03/21 02:55:36;;;;;;;9.00;7.47;;;;;;;;;;5050437;28;20446;-75
2022/03/21 02:58:02;;;;;;;11.20;6.10;;;;;;;;;;5049109;28;20433;-74
2022/03/21 03:00:29;;;;;;;7.77;6.87;;;;;;;;;;5048177;28;20439;-76
2022/03/21 03:02:55;;;;;;;9.97;6.97;;;;;;;;;;5047599;28;20443;-75
2022/03/21 03:05:21;;;;;;;12.03;7.07;;;;;;;;;;5047281;28;20504;-75
2022/03/21 03:07:47;;;;;;;7.87;7.10;;;;;;;;;;5047401;28;20810;-75
2022/03/21 03:10:13;;;;;;;6.97;6.30;;;;;;;;;;5048354;28;20478;-75
2022/03/21 03:12:39;;;;;;;9.90;7.00;;;;;;;;;;5049218;28;20505;-74
2022/03/21 03:15:05;;;;;;;7.63;6.37;;;;;;;;;;5049834;28;20438;-75
2022/03/21 03:17:31;;;;;;;6.60;6.00;;;;;;;;;;5047066;28;20433;-75
2022/03/21 03:19:57;;;;;;;16.63;6.57;;;;;;;;;;5049432;28;20437;-75
2022/03/21 03:22:24;;;;;;;14.43;6.63;;;;;;;;;;5047024;28;20844;-75
2022/03/21 03:24:50;;;;;;;9.10;6.93;;;;;;;;;;5048514;28;20833;-76
2022/03/21 03:27:16;;;;;;;9.50;7.90;;;;;;;;;;5047347;28;20472;-75
2022/03/21 03:29:42;;;;;;;14.50;8.47;;;;;;;;;;5047894;28;20505;-75
2022/03/21 03:32:09;;;;;;;12.90;6.50;;;;;;;;;;5049134;28;20434;-75
2022/03/21 03:34:35;;;;;;;12.13;6.50;;;;;;;;;;5048518;28;20508;-75
2022/03/21 03:37:01;;;;;;;24.13;7.50;;;;;;;;;;5050000;28;20942;-75
2022/03/21 03:39:28;;;;;;;10.23;6.87;;;;;;;;;;5049925;28;20438;-74
2022/03/21 03:41:54;;;;;;;20.17;7.53;;;;;;;;;;5048450;28;20438;-74
2022/03/21 03:44:22;;;;;;;8.40;7.47;;;;;;;;;;5048702;28;20790;-75
2022/03/21 03:46:48;;;;;;;13.60;7.60;;;;;;;;;;5049399;28;20512;-75
2022/03/21 03:49:14;;;;;;;9.87;6.87;;;;;;;;;;5049760;28;20425;-75
2022/03/21 03:51:40;;;;;;;10.70;7.43;;;;;;;;;;5046553;28;20443;-75
2022/03/21 03:54:06;;;;;;;10.80;7.60;;;;;;;;;;5048005;28;20418;-75
2022/03/21 03:56:32;;;;;;;14.20;7.50;;;;;;;;;;5047292;28;20455;-74
2022/03/21 03:58:58;;;;;;;8.60;7.60;;;;;;;;;;5048164;28;20426;-75
2022/03/21 04:01:24;;;;;;;8.37;7.30;;;;;;;;;;5048970;28;20430;-75
2022/03/21 04:03:50;;;;;;;8.43;6.90;;;;;;;;;;5046480;28;20946;-74
2022/03/21 04:06:17;;;;;;;8.70;6.67;;;;;;;;;;5049184;28;20954;-75
2022/03/21 04:08:44;;;;;;;6.23;5.67;;;;;;;;;;5047679;28;20430;-75
2022/03/21 04:11:10;;;;;;;9.10;6.30;;;;;;;;;;5048520;28;20487;-74
2022/03/21 04:13:36;;;;;;;8.30;7.57;;;;;;;;;;5044297;28;20434;-75
2022/03/21 04:16:02;;;;;;;9.50;7.43;;;;;;;;;;5047605;28;20557;-75
2022/03/21 04:18:28;;;;;;;11.77;8.00;;;;;;;;;;5047511;28;20644;-75
2022/03/21 04:20:54;;;;;;;9.07;7.50;;;;;;;;;;5048740;28;20439;-74
2022/03/21 04:23:20;;;;;;;13.30;9.10;;;;;;;;;;5048719;28;20779;-76
2022/03/21 04:25:46;;;;;;;7.70;6.90;;;;;;;;;;5048010;28;20453;-75
2022/03/21 04:28:14;;;;;;;9.17;7.53;;;;;;;;;;5047217;28;20442;-75
2022/03/21 04:30:40;;;;;;;8.07;7.27;;;;;;;;;;5042352;28;20479;-75
2022/03/21 04:33:06;;;;;;;7.03;6.43;;;;;;;;;;5048119;28;20464;-74
2022/03/21 04:35:32;;;;;;;8.43;7.63;;;;;;;;;;5049021;28;20445;-75
2022/03/21 04:37:58;;;;;;;12.83;7.20;;;;;;;;;;5049064;28;20434;-75
2022/03/21 04:40:24;;;;;;;10.30;7.60;;;;;;;;;;5047871;28;20434;-75
2022/03/21 04:42:50;;;;;;;9.60;7.60;;;;;;;;;;5047549;28;20568;-75
2022/03/21 04:45:16;;;;;;;8.40;7.30;;;;;;;;;;5045343;28;20495;-74
2022/03/21 04:47:43;;;;;;;10.77;7.77;;;;;;;;;;5048905;28;20441;-76
2022/03/21 04:50:09;;;;;;;9.67;7.20;;;;;;;;;;5048215;28;20474;-75
2022/03/21 04:52:36;;;;;;;12.40;7.40;;;;;;;;;;5045136;28;20435;-74
2022/03/21 04:55:02;;;;;;;9.50;8.17;;;;;;;;;;5048146;28;21001;-75
2022/03/21 04:57:28;;;;;;;11.93;8.40;;;;;;;;;;5047538;28;20479;-75
2022/03/21 04:59:55;;;;;;;9.40;8.50;;;;;;;;;;5043890;28;20442;-75
2022/03/21 05:02:21;;;;;;;9.93;8.70;;;;;;;;;;5048587;28;20465;-74
2022/03/21 05:04:47;;;;;;;9.30;8.40;;;;;;;;;;5047838;28;20938;-75
2022/03/21 05:07:16;;;;;;;8.70;7.87;;;;;;;;;;5050667;28;20433;-75
2022/03/21 05:09:43;;;;;;;10.33;8.80;;;;;;;;;;5050497;28;20966;-75
2022/03/21 05:12:12;;;;;;;9.60;7.47;;;;;;;;;;5050383;28;20496;-75
2022/03/21 05:14:39;;;;;;;8.90;7.67;;;;;;;;;;5050604;28;20438;-75
2022/03/21 05:17:05;;;;;;;9.80;8.57;;;;;;;;;;5050792;28;20422;-75
2022/03/21 05:19:35;;;;;;;7.90;7.10;;;;;;;;;;5047491;28;20529;-75
2022/03/21 05:22:02;;;;;;;10.90;7.50;;;;;;;;;;5051205;28;20449;-75
2022/03/21 05:32:42;;;;;;;9.13;8.10;;;;;;;;;;5049836;28;20965;-74
2022/03/21 05:37:52;;;;;;;10.43;7.13;;;;;;;;;;5051048;28;20472;-75
2022/03/21 05:40:41;;;;;;;7.80;7.07;;;;;;;;;;5050639;28;20430;-74
2022/03/21 05:43:07;;;;;;;8.90;6.60;;;;;;;;;;5049914;28;20427;-75
2022/03/21 05:45:33;;;;;;;10.33;6.97;;;;;;;;;;5047544;28;20461;-75
2022/03/21 05:50:43;;;;;;;7.50;6.83;;;;;;;;;;5052153;28;20534;-75
2022/03/21 05:53:09;;;;;;;8.50;6.60;;;;;;;;;;5050387;28;20770;-75
2022/03/21 05:55:36;;;;;;;8.90;7.70;;;;;;;;;;5048435;28;20479;-75
2022/03/21 05:58:02;;;;;;;9.87;7.23;;;;;;;;;;5046388;28;20478;-75
2022/03/21 06:00:28;;;;;;;8.03;7.23;;;;;;;;;;5050913;28;20863;-75
2022/03/21 06:02:54;;;;;;;7.23;6.63;;;;;;;;;;5051892;28;20456;-74
2022/03/21 06:05:21;;;;;;;10.03;8.40;;;;;;;;;;5049890;28;20457;-75
2022/03/21 06:07:47;;;;;;;7.87;7.13;;;;;;;;;;5048757;28;20433;-74
2022/03/21 06:10:13;;;;;;;8.43;7.30;;;;;;;;;;5048007;28;20528;-75
2022/03/21 06:12:43;;;;;;;9.93;7.60;;;;;;;;;;5044137;28;20450;-75
2022/03/21 06:15:09;;;;;;;7.70;7.00;;;;;;;;;;5048928;28;20434;-75
2022/03/21 06:17:38;;;;;;;8.90;6.37;;;;;;;;;;5050842;28;20438;-75
2022/03/21 06:20:06;;;;;;;13.67;7.27;;;;;;;;;;5047293;28;20522;-75
2022/03/21 06:22:32;;;;;;;10.50;7.40;;;;;;;;;;5050445;28;20950;-75
2022/03/21 06:24:58;;;;;;;9.33;6.77;;;;;;;;;;5049915;28;20445;-75
2022/03/21 06:27:24;;;;;;;14.13;7.17;;;;;;;;;;5049895;28;20945;-75
2022/03/21 06:29:50;;;;;;;12.30;6.80;;;;;;;;;;5040925;28;20475;-76
2022/03/21 06:32:16;;;;;;;12.17;7.97;;;;;;;;;;5049494;28;20517;-75
2022/03/21 06:34:42;;;;;;;7.37;6.57;;;;;;;;;;5050347;28;20710;-75
2022/03/21 06:37:08;;;;;;;9.27;8.50;;;;;;;;;;5049756;28;20910;-75
2022/03/21 06:39:34;;;;;;;8.83;7.87;;;;;;;;;;5048607;28;20525;-75
2022/03/21 06:42:00;;;;;;;25.83;8.30;;;;;;;;;;5046020;28;20586;-76
2022/03/21 06:44:26;;;;;;;14.27;9.73;;;;;;;;;;5049720;28;20559;-74
2022/03/21 06:46:52;;;;;;;20.03;11.50;;;;;;;;;;5047097;28;20474;-75
2022/03/21 06:49:20;;;;;;;17.77;10.13;;;;;;;;;;5040908;28;20450;-74
2022/03/21 06:51:46;;;;;;;16.90;10.97;;;;;;;;;;5048580;28;20430;-75
2022/03/21 06:54:12;;;;;;;14.43;9.63;;;;;;;;;;5046325;28;20453;-75
2022/03/21 06:56:38;;;;;;;21.43;10.73;;;;;;;;;;5049802;28;20446;-75
2022/03/21 06:59:04;;;;;;;22.40;10.87;;;;;;;;;;5046093;28;20521;-75
2022/03/21 07:01:32;;;;;;;14.07;10.53;;;;;;;;;;5047330;28;20798;-76
2022/03/21 07:03:58;;;;;;;18.07;9.57;;;;;;;;;;5042180;28;20984;-74
2022/03/21 07:06:24;;;;;;;15.13;8.80;;;;;;;;;;5045523;28;20443;-75
2022/03/21 07:08:51;;;;;;;11.27;8.17;;;;;;;;;;5040690;28;20434;-75
2022/03/21 07:11:20;;;;;;;11.13;9.37;;;;;;;;;;5047797;28;20573;-75
2022/03/21 07:13:46;;;;;;;10.47;9.10;;;;;;;;;;5049925;28;20430;-75
2022/03/21 07:16:16;;;;;;;11.03;9.13;;;;;;;;;;5042318;28;20457;-76
2022/03/21 07:18:42;;;;;;;8.93;7.70;;;;;;;;;;5046263;28;20931;-75
2022/03/21 07:21:08;;;;;;;7.70;6.63;;;;;;;;;;5048951;28;20909;-75
2022/03/21 07:23:34;;;;;;;14.30;8.30;;;;;;;;;;5045625;28;20484;-74
2022/03/21 07:26:00;;;;;;;8.53;7.70;;;;;;;;;;5046011;28;20449;-75
2022/03/21 07:28:27;;;;;;;12.50;7.80;;;;;;;;;;5045672;28;20930;-75
2022/03/21 07:30:53;;;;;;;13.27;7.53;;;;;;;;;;5049722;28;20851;-74
2022/03/21 07:33:19;;;;;;;10.53;8.03;;;;;;;;;;5047897;28;20422;-75
2022/03/21 07:35:45;;;;;;;8.30;7.03;;;;;;;;;;5042435;28;20974;-74
2022/03/21 07:38:11;;;;;;;8.13;7.30;;;;;;;;;;5043773;28;20443;-73
2022/03/21 07:40:37;;;;;;;18.43;7.67;;;;;;;;;;5048591;28;21055;-74
2022/03/21 07:43:03;;;;;;;14.70;7.00;;;;;;;;;;5045043;28;20422;-74
2022/03/21 07:48:14;;;;;;;9.07;7.67;;;;;;;;;;5048336;28;20468;-75
2022/03/21 07:50:41;;;;;;;10.40;8.20;;;;;;;;;;5049216;28;20490;-74
2022/03/21 07:53:08;;;;;;;16.47;8.70;;;;;;;;;;5044186;28;20434;-74
2022/03/21 07:55:34;;;;;;;21.57;8.00;;;;;;;;;;5047677;28;20814;-75
2022/03/21 07:58:01;;;;;;;13.80;8.17;;;;;;;;;;5047420;28;20492;-74
2022/03/21 08:00:27;;;;;;;13.20;8.53;;;;;;;;;;5048802;28;20487;-74
2022/03/21 08:02:54;;;;;;;14.30;9.60;;;;;;;;;;5049314;28;20509;-74
2022/03/21 08:05:20;;;;;;;10.93;8.40;;;;;;;;;;5048879;28;20441;-76
2022/03/21 08:07:46;;;;;;;12.67;9.03;;;;;;;;;;5043585;28;20555;-75
2022/03/21 08:10:12;;;;;;;9.20;7.80;;;;;;;;;;5047935;28;20509;-75
2022/03/21 08:12:42;;;;;;;8.17;7.23;;;;;;;;;;5047379;28;20434;-74
2022/03/21 08:15:11;;;;;;;12.80;8.40;;;;;;;;;;5049732;28;20802;-75
2022/03/21 08:17:48;;;;;;;8.97;8.03;;;;;;;;;;5046843;28;20430;-76
2022/03/21 08:20:14;;;;;;;13.10;8.37;;;;;;;;;;5046876;28;20837;-74
2022/03/21 08:22:43;;;;;;;11.57;8.53;;;;;;;;;;5045480;28;20434;-73
2022/03/21 08:25:09;;;;;;;11.47;7.30;;;;;;;;;;5036906;28;20953;-75
2022/03/21 08:27:36;;;;;;;11.37;8.57;;;;;;;;;;5046551;28;20457;-75
2022/03/21 08:30:02;;;;;;;8.00;7.10;;;;;;;;;;5048507;28;20477;-75
2022/03/21 08:32:28;;;;;;;14.77;8.07;;;;;;;;;;5045964;28;20445;-74
2022/03/21 08:34:54;;;;;;;10.20;7.27;;;;;;;;;;5046486;28;20975;-75
2022/03/21 08:37:21;;;;;;;8.57;7.10;;;;;;;;;;5046647;28;20468;-75
2022/03/21 08:39:47;;;;;;;8.50;7.60;;;;;;;;;;5048984;28;20678;-74
2022/03/21 08:42:13;;;;;;;7.90;7.10;;;;;;;;;;5045610;28;20433;-74
2022/03/21 08:44:39;;;;;;;13.23;8.13;;;;;;;;;;5053645;28;20422;-75
2022/03/21 08:47:05;;;;;;;9.03;7.00;;;;;;;;;;5049741;28;20579;-75
2022/03/21 08:49:37;;;;;;;9.17;7.00;;;;;;;;;;5053133;28;20426;-75
2022/03/21 08:52:06;;;;;;;6.40;6.00;;;;;;;;;;5049327;28;20473;-75
2022/03/21 08:54:31;;;;;;;6.60;6.07;;;;;;;;;;5052057;28;20427;-75
2022/03/21 08:56:57;;;;;;;7.67;6.97;;;;;;;;;;5045187;28;20445;-74
2022/03/21 08:59:24;;;;;;;6.97;6.27;;;;;;;;;;5050436;28;20464;-76
2022/03/21 09:01:51;;;;;;;7.70;6.10;;;;;;;;;;5046185;28;20493;-75
2022/03/21 09:04:17;;;;;;;6.93;6.20;;;;;;;;;;5050850;28;20480;-75
2022/03/21 09:06:43;;;;;;;7.33;6.70;;;;;;;;;;5048679;28;20434;-76
2022/03/21 09:09:09;;;;;;;14.20;7.63;;;;;;;;;;5051332;28;20778;-75
2022/03/21 09:11:35;;;;;;;9.83;6.80;;;;;;;;;;5052085;28;20477;-75
2022/03/21 09:14:01;;;;;;;6.83;6.20;;;;;;;;;;5051541;28;20434;-80
2022/03/21 09:16:27;;;;;;;6.30;5.73;;;;;;;;;;5052765;28;20429;-74
2022/03/21 09:18:53;;;;;;;7.07;6.30;;;;;;;;;;5050965;28;20971;-71
2022/03/21 09:21:19;;;;;;;6.70;6.20;;;;;;;;;;5046585;28;20491;-74
2022/03/21 09:23:45;;;;;;;6.20;5.60;;;;;;;;;;5039949;28;20807;-75
2022/03/21 09:26:11;;;;;;;13.00;6.77;;;;;;;;;;5048279;28;20433;-74
2022/03/21 09:28:43;;;;;;;7.17;6.50;;;;;;;;;;5046364;28;20445;-76
2022/03/21 09:31:09;;;;;;;12.30;6.17;;;;;;;;;;5042662;28;20487;-75
2022/03/21 09:33:36;;;;;;;8.77;6.80;;;;;;;;;;5051158;28;20782;-75
2022/03/21 09:36:03;;;;;;;6.93;5.77;;;;;;;;;;5048486;28;20537;-75
2022/03/21 09:38:29;;;;;;;7.70;7.00;;;;;;;;;;5047364;28;20425;-74
2022/03/21 09:40:55;;;;;;;9.07;6.20;;;;;;;;;;5050986;28;20434;-74
2022/03/21 09:43:21;;;;;;;10.53;8.47;;;;;;;;;;5046989;28;20437;-75
2022/03/21 09:45:47;;;;;;;9.30;6.27;;;;;;;;;;5037974;28;21378;-75
2022/03/21 09:48:16;;;;;;;18.50;6.43;;;;;;;;;;5048123;28;20438;-74
2022/03/21 09:50:44;;;;;;;6.93;6.33;;;;;;;;;;5045475;28;20477;-74
2022/03/21 09:53:12;;;;;;;7.50;5.63;;;;;;;;;;5043557;28;20434;-75
2022/03/21 09:55:38;;;;;;;8.10;6.77;;;;;;;;;;5050557;28;20461;-75
2022/03/21 09:58:04;;;;;;;7.43;6.53;;;;;;;;;;5047128;28;20437;-74
2022/03/21 10:00:32;;;;;;;7.00;6.37;;;;;;;;;;5045242;28;20448;-74
2022/03/21 10:02:58;;;;;;;10.33;6.90;;;;;;;;;;5048651;28;20508;-74
2022/03/21 10:05:37;;;;;;;9.30;7.67;;;;;;;;;;5051882;28;20808;-74
2022/03/21 10:08:10;;;;;;;14.77;7.90;;;;;;;;;;5048890;28;20438;-75
2022/03/21 10:10:36;;;;;;;9.10;7.93;;;;;;;;;;5049188;28;20529;-74
2022/03/21 10:13:03;;;;;;;12.23;7.97;;;;;;;;;;5050490;28;20941;-74
2022/03/21 10:15:29;;;;;;;15.70;8.87;;;;;;;;;;5051577;28;20930;-74
2022/03/21 10:18:08;;;;;;;10.93;6.77;;;;;;;;;;5049584;28;20470;-74
2022/03/21 10:20:35;;;;;;;8.90;7.20;;;;;;;;;;5050870;28;20797;-74
2022/03/21 10:23:16;;;;;;;13.43;8.30;;;;;;;;;;5045468;28;20438;-74
2022/03/21 10:25:43;;;;;;;9.60;8.60;;;;;;;;;;5046449;28;20449;-74
2022/03/21 10:28:09;;;;;;;11.93;7.97;;;;;;;;;;5051652;28;20422;-74
2022/03/21 10:30:44;;;;;;;13.13;8.30;;;;;;;;;;5046751;28;20989;-74
2022/03/21 10:33:10;;;;;;;20.57;7.03;;;;;;;;;;5049596;28;20448;-74
2022/03/21 10:35:45;;;;;;;9.40;7.00;;;;;;;;;;5050408;28;20533;-74
2022/03/21 10:38:11;;;;;;;10.23;7.93;;;;;;;;;;5043890;28;20433;-74
2022/03/21 10:40:44;;;;;;;7.20;6.20;;;;;;;;;;5050037;28;20434;-74
2022/03/21 10:43:12;;;;;;;7.50;6.87;;;;;;;;;;5045608;28;20430;-74
2022/03/21 10:45:42;;;;;;;6.47;5.90;;;;;;;;;;5048630;28;20472;-74
2022/03/21 10:48:12;;;;;;;10.77;6.60;;;;;;;;;;5049061;28;20521;-74
2022/03/21 10:50:40;;;;;;;7.83;6.57;;;;;;;;;;5046650;28;20482;-74
2022/03/21 10:53:06;;;;;;;6.60;6.00;;;;;;;;;;5047509;28;20441;-74
2022/03/21 10:55:32;;;;;;;8.77;6.33;;;;;;;;;;5046882;28;20442;-74
2022/03/21 10:57:58;;;;;;;5.83;5.33;;;;;;;;;;5042420;28;20997;-74
2022/03/21 11:00:26;;;;;;;8.20;5.77;;;;;;;;;;5050671;28;20458;-74
2022/03/21 11:02:52;;;;;;;5.40;5.10;;;;;;;;;;5047743;28;20427;-74
2022/03/21 11:05:19;;;;;;;10.97;5.67;;;;;;;;;;5041944;28;20443;-74
2022/03/21 11:07:46;;;;;;;11.50;6.70;;;;;;;;;;5045183;28;20430;-74
2022/03/21 11:10:12;;;;;;;6.57;5.20;;;;;;;;;;5050207;28;20552;-73
2022/03/21 11:12:41;;;;;;;5.37;4.87;;;;;;;;;;5046727;28;20439;-74
2022/03/21 11:15:08;;;;;;;6.50;5.20;;;;;;;;;;5048152;28;20496;-74
2022/03/21 11:17:35;;;;;;;5.23;4.63;;;;;;;;;;5045685;28;20950;-74
2022/03/21 11:20:02;;;;;;;6.33;5.80;;;;;;;;;;5050372;28;20422;-74
2022/03/21 11:22:29;;;;;;;7.87;5.50;;;;;;;;;;5048909;28;20418;-74
2022/03/21 11:25:00;;;;;;;9.17;5.47;;;;;;;;;;5048776;28;20442;-74
2022/03/21 11:27:47;;;;;;;6.57;6.07;;;;;;;;;;5049041;28;20461;-74
2022/03/21 11:30:17;;;;;;;8.30;5.90;;;;;;;;;;5049915;28;20485;-74
2022/03/21 11:32:59;;;;;;;7.20;4.13;;;;;;;;;;5045776;28;20431;-74
2022/03/21 11:35:27;;;;;;;6.47;5.90;;;;;;;;;;5043973;28;20438;-74
2022/03/21 11:37:55;;;;;;;12.50;5.87;;;;;;;;;;5047926;28;20809;-74
2022/03/21 11:40:25;;;;;;;6.90;4.90;;;;;;;;;;5047218;28;20434;-74
2022/03/21 11:42:51;;;;;;;9.40;6.23;;;;;;;;;;5045997;28;20484;-74
2022/03/21 11:45:22;;;;;;;9.70;6.50;;;;;;;;;;5037853;28;20428;-74
2022/03/21 11:47:49;;;;;;;14.90;5.93;;;;;;;;;;5046720;28;20618;-73
2022/03/21 11:50:27;;;;;;;11.63;6.23;;;;;;;;;;5048182;28;20477;-75
2022/03/21 11:53:11;;;;;;;6.53;5.93;;;;;;;;;;5048511;28;20534;-74
2022/03/21 11:55:38;;;;;;;6.47;5.60;;;;;;;;;;5046006;28;20453;-74
2022/03/21 11:58:22;;;;;;;9.50;6.30;;;;;;;;;;5044686;28;20446;-74
2022/03/21 12:01:06;;;;;;;8.60;6.47;;;;;;;;;;5045328;28;20442;-74
2022/03/21 12:03:32;;;;;;;5.90;5.40;;;;;;;;;;5046866;28;20429;-75
2022/03/21 12:05:59;;;;;;;6.80;5.87;;;;;;;;;;5045359;28;20445;-74
2022/03/21 12:08:32;;;;;;;7.50;6.77;;;;;;;;;;5049003;28;20435;-74
2022/03/21 12:10:58;;;;;;;7.40;4.80;;;;;;;;;;5046551;28;20729;-74
2022/03/21 12:13:24;;;;;;;8.00;7.20;;;;;;;;;;5042352;28;20483;-74
2022/03/21 12:15:51;;;;;;;7.40;6.37;;;;;;;;;;5041285;28;20196;-74
2022/03/21 12:18:17;;;;;;;9.80;7.07;;;;;;;;;;5043097;28;20775;-74
2022/03/21 12:20:50;;;;;;;10.00;6.10;;;;;;;;;;5047147;28;20449;-74
2022/03/21 12:23:18;;;;;;;7.80;6.90;;;;;;;;;;5046952;28;20548;-74
2022/03/21 12:25:46;;;;;;;12.20;6.77;;;;;;;;;;5046558;28;20434;-73
2022/03/21 12:29:31;;;;;;;8.87;6.93;;;;;;;;;;5043561;28;20439;-73
2022/03/21 12:31:41;;;;;;;10.17;7.20;;;;;;;;;;5048964;28;20474;-75
2022/03/21 12:34:26;;;;;;;11.10;7.47;;;;;;;;;;5036243;28;20513;-74
2022/03/21 12:36:52;;;;;;;8.87;7.83;;;;;;;;;;5039584;28;20561;-74
2022/03/21 12:39:19;;;;;;;8.00;7.30;;;;;;;;;;5046297;28;20533;-75
2022/03/21 12:41:45;;;;;;;10.13;7.80;;;;;;;;;;5047137;28;20805;-75
2022/03/21 12:44:13;;;;;;;8.10;7.40;;;;;;;;;;5046299;28;21021;-75
2022/03/21 12:46:39;;;;;;;7.87;6.97;;;;;;;;;;5048960;28;20982;-75
2022/03/21 12:49:05;;;;;;;8.93;7.67;;;;;;;;;;5041966;28;20437;-75
2022/03/21 12:51:33;;;;;;;7.53;6.87;;;;;;;;;;5046369;28;20554;-75
2022/03/21 12:54:03;;;;;;;10.60;6.57;;;;;;;;;;5043646;28;20445;-74
2022/03/21 12:56:29;;;;;;;7.17;6.50;;;;;;;;;;5044273;28;20483;-74
2022/03/21 12:58:56;;;;;;;7.73;7.17;;;;;;;;;;5044971;28;20438;-74
2022/03/21 13:01:22;;;;;;;11.50;7.40;;;;;;;;;;5047035;28;20434;-75
2022/03/21 13:03:57;;;;;;;13.97;6.97;;;;;;;;;;5042750;28;20422;-74
2022/03/21 13:11:57;;;;;;;11.27;7.23;;;;;;;;;;5048088;28;20543;-74
2022/03/21 13:14:23;;;;;;;7.07;6.47;;;;;;;;;;5041450;28;20434;-74
2022/03/21 13:17:00;;;;;;;7.10;6.50;;;;;;;;;;5040930;28;20449;-74
2022/03/21 13:19:27;;;;;;;12.50;7.43;;;;;;;;;;5039215;28;22405;-74
2022/03/21 13:21:59;;;;;;;8.47;7.80;;;;;;;;;;5044493;28;20434;-74
2022/03/21 13:24:38;;;;;;;7.83;7.03;;;;;;;;;;5042605;28;20874;-74
2022/03/21 13:27:04;;;;;;;9.47;6.47;;;;;;;;;;5045079;28;20808;-74
2022/03/21 13:29:31;;;;;;;17.07;6.90;;;;;;;;;;5049677;28;20566;-74
2022/03/21 13:31:58;;;;;;;15.80;8.57;;;;;;;;;;5045571;28;20462;-74
2022/03/21 13:34:24;;;;;;;9.10;7.77;;;;;;;;;;5052055;28;20540;-74
2022/03/21 13:36:50;;;;;;;8.53;6.97;;;;;;;;;;5051360;28;20436;-74
2022/03/21 13:39:22;;;;;;;8.77;6.77;;;;;;;;;;5051848;28;20438;-74
2022/03/21 13:42:04;;;;;;;14.50;7.77;;;;;;;;;;5052377;28;20418;-75
2022/03/21 13:44:31;;;;;;;8.07;6.80;;;;;;;;;;5048443;28;20477;-74
2022/03/21 13:47:00;;;;;;;8.20;7.03;;;;;;;;;;5043553;28;20474;-75
2022/03/21 13:49:46;;;;;;;8.27;6.63;;;;;;;;;;5045710;28;20449;-74
2022/03/21 13:52:17;;;;;;;15.50;6.50;;;;;;;;;;5047085;28;20469;-74
2022/03/21 13:54:49;;;;;;;8.30;6.87;;;;;;;;;;5047874;28;20442;-74
2022/03/21 13:57:16;;;;;;;11.50;7.53;;;;;;;;;;5045661;28;20446;-74
2022/03/21 13:59:42;;;;;;;8.27;6.43;;;;;;;;;;5048550;28;20438;-75
2022/03/21 14:02:10;;;;;;;6.40;5.90;;;;;;;;;;5049039;28;20452;-74
2022/03/21 14:04:37;;;;;;;8.20;7.50;;;;;;;;;;5029835;28;20435;-74
2022/03/21 14:07:03;;;;;;;6.17;5.57;;;;;;;;;;5046884;28;20512;-74
2022/03/21 14:09:29;;;;;;;7.87;7.00;;;;;;;;;;5049942;28;20434;-74
2022/03/21 14:12:05;;;;;;;11.30;6.50;;;;;;;;;;5049078;28;21018;-74
2022/03/21 14:14:31;;;;;;;9.60;7.00;;;;;;;;;;5046918;28;20926;-75
2022/03/21 14:16:58;;;;;;;10.13;6.60;;;;;;;;;;5038711;28;20446;-74
2022/03/21 14:19:24;;;;;;;6.70;6.13;;;;;;;;;;5028170;28;20959;-75
2022/03/21 14:21:49;;;;;;;13.47;7.17;;;;;;;;;;5049121;28;20445;-74
2022/03/21 14:24:15;;;;;;;14.53;7.27;;;;;;;;;;5036691;28;20438;-74
2022/03/21 14:26:44;;;;;;;7.67;6.90;;;;;;;;;;5044111;28;20472;-74
2022/03/21 14:29:10;;;;;;;8.90;6.67;;;;;;;;;;5040857;28;20476;-74
2022/03/21 14:31:36;;;;;;;8.40;7.50;;;;;;;;;;5047351;28;20531;-74
2022/03/21 14:34:02;;;;;;;7.97;6.10;;;;;;;;;;5040902;28;20451;-74
2022/03/21 14:36:29;;;;;;;8.57;7.13;;;;;;;;;;5042514;28;20975;-74
2022/03/21 14:38:55;;;;;;;10.70;7.03;;;;;;;;;;5042907;28;20810;-74
2022/03/21 14:41:21;;;;;;;9.50;6.77;;;;;;;;;;5042750;28;20525;-74
2022/03/21 14:43:49;;;;;;;30.47;7.10;;;;;;;;;;5043914;28;20445;-75
2022/03/21 14:46:21;;;;;;;14.57;8.00;;;;;;;;;;5044479;28;20584;-74
2022/03/21 14:48:48;;;;;;;7.60;6.90;;;;;;;;;;5036825;28;20434;-74
2022/03/21 14:51:14;;;;;;;9.67;7.80;;;;;;;;;;5042825;28;20543;-74
2022/03/21 14:53:40;;;;;;;8.17;7.23;;;;;;;;;;5047190;28;20772;-74
2022/03/21 14:56:06;;;;;;;8.10;7.27;;;;;;;;;;5048683;28;20445;-75
2022/03/21 14:58:34;;;;;;;8.70;7.87;;;;;;;;;;5045111;28;20434;-74
2022/03/21 15:01:00;;;;;;;9.93;8.10;;;;;;;;;;5041972;28;20509;-74
2022/03/21 15:03:26;;;;;;;8.47;7.57;;;;;;;;;;5048304;28;20450;-74
2022/03/21 15:05:52;;;;;;;11.67;7.13;;;;;;;;;;5049541;28;20922;-74